createdAt,value
2018-09-29T00:01:09.444Z,61.16
2018-09-29T00:03:37.632Z,61.58
2018-09-29T00:06:05.832Z,60.66
2018-09-29T00:08:33.979Z,60.99
2018-09-29T00:11:02.152Z,61.09
2018-09-29T00:13:30.317Z,61.01
2018-09-29T00:15:58.444Z,60.80
2018-09-29T00:18:26.573Z,61.11
2018-09-29T00:20:54.832Z,61.67
2018-09-29T00:23:22.973Z,61.00
2018-09-29T00:25:51.204Z,61.74
2018-09-29T00:28:19.356Z,61.46
2018-09-29T00:30:47.495Z,61.32
2018-09-29T00:33:15.639Z,62.09
2018-09-29T00:35:44.043Z,61.75
2018-09-29T00:38:12.192Z,62.43
2018-09-29T00:40:40.396Z,62.86
2018-09-29T00:43:08.533Z,63.63
2018-09-29T00:45:36.807Z,63.28
2018-09-29T00:48:04.994Z,63.99
2018-09-29T00:50:33.191Z,64.00
2018-09-29T00:53:01.356Z,64.27
2018-09-29T00:55:29.550Z,64.41
2018-09-29T00:57:57.725Z,64.44
2018-09-29T01:00:25.891Z,64.97
2018-09-29T01:02:54.044Z,65.44
2018-09-29T01:05:22.171Z,65.55
2018-09-29T01:07:50.302Z,66.39
2018-09-29T01:10:18.466Z,66.93
2018-09-29T01:12:46.628Z,67.06
2018-09-29T01:15:14.836Z,67.72
2018-09-29T01:17:43.010Z,68.07
2018-09-29T01:20:11.140Z,67.84
2018-09-29T01:22:39.284Z,67.98
2018-09-29T01:25:07.440Z,68.68
2018-09-29T01:27:35.575Z,68.88
2018-09-29T01:30:03.851Z,69.12
2018-09-29T01:32:32.012Z,69.76
2018-09-29T01:35:00.190Z,70.05
2018-09-29T01:37:28.536Z,70.35
2018-09-29T01:39:56.780Z,70.49
2018-09-29T01:42:25.260Z,70.56
2018-09-29T01:44:53.381Z,71.07
2018-09-29T01:47:21.832Z,71.57
2018-09-29T01:49:49.964Z,71.52
2018-09-29T01:52:18.212Z,71.72
2018-09-29T01:54:46.344Z,72.32
2018-09-29T01:57:14.488Z,72.42
2018-09-29T01:59:42.635Z,72.68
2018-09-29T02:02:10.792Z,73.28
2018-09-29T02:04:38.920Z,73.62
2018-09-29T02:07:07.120Z,73.67
2018-09-29T02:09:35.538Z,73.53
2018-09-29T02:12:03.725Z,74.25
2018-09-29T02:14:31.833Z,74.79
2018-09-29T02:16:59.987Z,75.32
2018-09-29T02:19:28.189Z,75.33
2018-09-29T02:21:56.335Z,75.58
2018-09-29T02:24:24.751Z,76.10
2018-09-29T02:26:52.880Z,76.53
2018-09-29T02:29:21.008Z,76.55
2018-09-29T02:31:49.487Z,76.72
2018-09-29T02:34:17.640Z,76.73
2018-09-29T02:36:45.853Z,77.08
2018-09-29T02:39:13.991Z,76.97
2018-09-29T02:41:42.149Z,77.18
2018-09-29T02:44:10.280Z,77.08
2018-09-29T02:46:38.404Z,77.18
2018-09-29T02:49:06.568Z,77.40
2018-09-29T02:51:34.928Z,77.72
2018-09-29T02:54:03.121Z,77.75
2018-09-29T02:56:31.369Z,77.37
2018-09-29T02:58:59.515Z,77.76
2018-09-29T03:01:27.681Z,77.98
2018-09-29T03:03:55.920Z,77.54
2018-09-29T03:06:24.098Z,77.28
2018-09-29T03:08:52.248Z,77.50
2018-09-29T03:11:20.392Z,77.65
2018-09-29T03:13:48.534Z,77.81
2018-09-29T03:16:16.737Z,77.64
2018-09-29T03:18:44.869Z,77.24
2018-09-29T03:21:12.992Z,76.95
2018-09-29T03:23:41.220Z,76.46
2018-09-29T03:26:09.365Z,76.03
2018-09-29T03:28:37.527Z,76.32
2018-09-29T03:31:05.952Z,76.27
2018-09-29T03:33:34.104Z,76.13
2018-09-29T03:36:02.244Z,75.94
2018-09-29T03:38:30.408Z,75.76
2018-09-29T03:40:58.620Z,76.00
2018-09-29T03:43:26.759Z,76.42
2018-09-29T03:45:54.912Z,76.50
2018-09-29T03:48:23.041Z,76.48
2018-09-29T03:50:51.169Z,76.46
2018-09-29T03:53:19.283Z,76.52
2018-09-29T03:55:47.408Z,76.37
2018-09-29T03:58:15.543Z,76.87
2018-09-29T04:00:43.675Z,76.93
2018-09-29T04:03:11.810Z,76.59
2018-09-29T04:05:40.437Z,76.38
2018-09-29T04:08:10.715Z,76.20
2018-09-29T04:10:38.825Z,76.57
2018-09-29T04:13:07.060Z,76.76
2018-09-29T04:15:35.209Z,76.56
2018-09-29T04:18:03.416Z,76.97
2018-09-29T04:20:31.563Z,76.52
2018-09-29T04:22:59.704Z,76.87
2018-09-29T04:25:27.844Z,76.57
2018-09-29T04:27:56.073Z,76.47
2018-09-29T04:30:24.217Z,76.88
2018-09-29T04:32:52.331Z,76.71
2018-09-29T04:35:20.464Z,76.94
2018-09-29T04:37:48.616Z,77.30
2018-09-29T04:40:16.768Z,76.94
2018-09-29T04:42:44.904Z,77.32
2018-09-29T04:45:13.066Z,77.25
2018-09-29T04:47:41.720Z,77.30
2018-09-29T04:50:09.957Z,77.35
2018-09-29T04:52:38.107Z,77.51
2018-09-29T04:55:06.252Z,77.83
2018-09-29T04:57:34.407Z,78.06
2018-09-29T05:00:02.536Z,77.90
2018-09-29T05:02:30.752Z,78.46
2018-09-29T05:04:58.880Z,78.59
2018-09-29T05:07:27.381Z,78.80
2018-09-29T05:09:55.539Z,79.14
2018-09-29T05:12:24.048Z,79.18
2018-09-29T05:14:52.182Z,79.14
2018-09-29T05:17:20.348Z,78.96
2018-09-29T05:19:51.092Z,79.24
2018-09-29T05:22:19.544Z,79.62
2018-09-29T05:24:47.706Z,79.76
2018-09-29T05:27:15.835Z,79.64
2018-09-29T05:29:44.383Z,79.94
2018-09-29T05:32:12.508Z,80.38
2018-09-29T05:34:40.734Z,80.30
2018-09-29T05:37:08.868Z,79.76
2018-09-29T05:39:37.003Z,79.94
2018-09-29T05:42:05.127Z,80.38
2018-09-29T05:44:33.260Z,80.35
2018-09-29T05:47:01.399Z,80.39
2018-09-29T05:49:29.591Z,80.61
2018-09-29T05:51:57.747Z,80.76
2018-09-29T05:54:25.878Z,80.40
2018-09-29T05:56:54.043Z,80.69
2018-09-29T05:59:22.185Z,80.71
2018-09-29T06:01:50.296Z,80.58
2018-09-29T06:04:18.431Z,80.58
2018-09-29T06:06:46.581Z,80.47
2018-09-29T06:09:14.768Z,80.33
2018-09-29T06:11:42.899Z,80.29
2018-09-29T06:14:11.055Z,80.05
2018-09-29T06:16:39.204Z,79.86
2018-09-29T06:19:07.427Z,79.66
2018-09-29T06:21:35.577Z,79.12
2018-09-29T06:24:03.725Z,79.29
2018-09-29T06:26:31.880Z,79.59
2018-09-29T06:29:00.004Z,78.82
2018-09-29T06:31:28.270Z,78.79
2018-09-29T06:33:56.421Z,78.98
2018-09-29T06:36:24.588Z,78.41
2018-09-29T06:38:52.733Z,77.56
2018-09-29T06:41:20.964Z,76.96
2018-09-29T06:43:49.579Z,76.68
2018-09-29T06:46:18.176Z,76.79
2018-09-29T06:48:47.012Z,76.15
2018-09-29T06:51:15.598Z,75.97
2018-09-29T06:53:43.964Z,74.50
2018-09-29T06:56:12.821Z,74.95
2018-09-29T06:58:41.189Z,74.05
2018-09-29T07:01:09.670Z,73.84
2018-09-29T07:03:38.522Z,72.76
2018-09-29T07:06:07.181Z,72.21
2018-09-29T07:08:35.380Z,72.16
2018-09-29T07:11:03.815Z,72.55
2018-09-29T07:13:32.032Z,72.04
2018-09-29T07:16:00.198Z,71.53
2018-09-29T07:18:28.435Z,71.18
2018-09-29T07:20:56.668Z,70.97
2018-09-29T07:23:25.231Z,71.22
2018-09-29T07:25:53.337Z,70.96
2018-09-29T07:28:21.672Z,70.62
2018-09-29T07:30:49.840Z,69.54
2018-09-29T07:33:17.981Z,69.27
2018-09-29T07:35:46.427Z,68.64
2018-09-29T07:38:14.650Z,68.81
2018-09-29T07:40:42.981Z,68.40
2018-09-29T07:43:11.207Z,67.49
2018-09-29T07:45:39.360Z,67.59
2018-09-29T07:48:07.612Z,66.73
2018-09-29T07:50:35.809Z,66.77
2018-09-29T07:53:04.103Z,64.95
2018-09-29T07:55:33.044Z,65.44
2018-09-29T07:58:01.264Z,64.67
2018-09-29T08:00:29.512Z,63.87
2018-09-29T08:02:57.809Z,63.77
2018-09-29T08:05:26.053Z,63.92
2018-09-29T08:07:54.329Z,63.07
2018-09-29T08:10:22.705Z,62.33
2018-09-29T08:12:50.932Z,61.96
2018-09-29T08:15:19.263Z,61.31
2018-09-29T08:17:47.517Z,60.45
2018-09-29T08:20:15.728Z,59.97
2018-09-29T08:22:43.928Z,57.84
2018-09-29T08:25:12.389Z,56.37
2018-09-29T08:27:40.828Z,57.42
2018-09-29T08:30:09.148Z,55.97
2018-09-29T08:32:37.866Z,55.50
2018-09-29T08:35:06.170Z,50.93
2018-09-29T08:37:34.613Z,49.19
2018-09-29T08:40:02.872Z,47.40
2018-09-29T08:42:31.297Z,47.16
2018-09-29T08:44:59.742Z,46.72
2018-09-29T08:47:27.883Z,47.07
2018-09-29T08:49:56.205Z,46.93
2018-09-29T08:52:24.326Z,47.82
2018-09-29T08:54:52.468Z,47.75
2018-09-29T08:57:20.764Z,46.52
2018-09-29T08:59:48.908Z,46.49
2018-09-29T09:02:17.170Z,46.47
2018-09-29T09:04:45.659Z,45.97
2018-09-29T09:07:13.812Z,45.05
2018-09-29T09:09:42.014Z,44.63
2018-09-29T09:12:10.284Z,45.37
2018-09-29T09:14:38.511Z,44.95
2018-09-29T09:17:06.702Z,45.30
2018-09-29T09:19:34.828Z,44.09
2018-09-29T09:22:02.989Z,43.58
2018-09-29T09:24:31.229Z,43.87
2018-09-29T09:26:59.388Z,42.96
2018-09-29T09:29:27.704Z,42.81
2018-09-29T09:31:55.878Z,42.88
2018-09-29T09:34:24.060Z,42.47
2018-09-29T09:36:52.197Z,42.49
2018-09-29T09:39:20.625Z,42.02
2018-09-29T09:41:48.926Z,41.97
2018-09-29T09:44:17.153Z,41.32
2018-09-29T09:46:45.508Z,40.69
2018-09-29T09:49:13.810Z,40.46
2018-09-29T09:51:42.833Z,41.26
2018-09-29T09:54:11.135Z,41.35
2018-09-29T09:56:39.289Z,41.47
2018-09-29T09:59:07.403Z,41.65
2018-09-29T10:01:39.736Z,40.77
2018-09-29T10:04:08.116Z,39.29
2018-09-29T10:06:36.634Z,40.86
2018-09-29T10:09:08.063Z,40.05
2018-09-29T10:11:36.503Z,40.09
2018-09-29T10:14:04.709Z,39.50
2018-09-29T10:16:33.481Z,39.77
2018-09-29T10:19:01.752Z,39.58
2018-09-29T10:21:30.174Z,39.43
2018-09-29T10:23:58.590Z,39.60
2018-09-29T10:26:27.098Z,39.54
2018-09-29T10:28:55.387Z,38.34
2018-09-29T10:31:23.635Z,38.24
2018-09-29T10:33:51.976Z,38.31
2018-09-29T10:36:20.407Z,38.27
2018-09-29T10:38:48.666Z,37.24
2018-09-29T10:41:18.193Z,37.08
2018-09-29T10:43:46.945Z,37.83
2018-09-29T10:46:15.300Z,37.68
2018-09-29T10:48:44.459Z,36.60
2018-09-29T10:51:12.933Z,36.62
2018-09-29T10:53:41.480Z,37.14
2018-09-29T10:56:09.805Z,36.38
2018-09-29T10:58:37.956Z,37.13
2018-09-29T11:01:06.508Z,37.61
2018-09-29T11:03:35.433Z,36.65
2018-09-29T11:06:04.259Z,36.73
2018-09-29T11:08:32.714Z,36.18
2018-09-29T11:11:01.354Z,36.89
2018-09-29T11:13:29.942Z,37.55
2018-09-29T11:15:58.678Z,37.03
2018-09-29T11:18:27.541Z,36.46
2018-09-29T11:20:56.025Z,36.03
2018-09-29T11:23:24.457Z,36.70
2018-09-29T11:25:52.838Z,37.54
2018-09-29T11:28:21.293Z,38.21
2018-09-29T11:30:49.552Z,38.49
2018-09-29T11:33:17.872Z,37.72
2018-09-29T11:35:46.281Z,37.93
2018-09-29T11:38:15.496Z,38.22
2018-09-29T11:40:44.041Z,39.57
2018-09-29T11:43:12.651Z,39.65
2018-09-29T11:45:41.078Z,39.90
2018-09-29T11:48:09.656Z,40.31
2018-09-29T11:50:38.281Z,41.51
2018-09-29T11:53:06.737Z,39.77
2018-09-29T11:55:35.155Z,39.69
2018-09-29T11:58:03.509Z,39.51
2018-09-29T12:00:31.997Z,38.36
2018-09-29T12:03:00.461Z,38.78
2018-09-29T12:05:28.907Z,39.42
2018-09-29T12:07:57.409Z,38.86
2018-09-29T12:10:25.737Z,39.23
2018-09-29T12:12:54.251Z,38.71
2018-09-29T12:15:22.790Z,38.75
2018-09-29T12:17:51.187Z,38.35
2018-09-29T12:20:19.464Z,37.99
2018-09-29T12:22:47.765Z,38.35
2018-09-29T12:25:16.650Z,38.25
2018-09-29T12:27:45.161Z,38.06
2018-09-29T12:30:13.726Z,37.93
2018-09-29T12:32:42.051Z,37.54
2018-09-29T12:35:10.460Z,37.66
2018-09-29T12:37:39.171Z,37.11
2018-09-29T12:40:07.465Z,37.38
2018-09-29T12:42:35.810Z,36.93
2018-09-29T12:45:04.207Z,36.94
2018-09-29T12:47:32.722Z,36.64
2018-09-29T12:50:01.323Z,37.16
2018-09-29T12:52:29.975Z,37.32
2018-09-29T12:54:58.556Z,36.48
2018-09-29T12:57:27.158Z,37.13
2018-09-29T12:59:55.649Z,36.84
2018-09-29T13:02:24.120Z,35.47
2018-09-29T13:04:52.888Z,35.15
2018-09-29T13:07:21.267Z,34.89
2018-09-29T13:09:49.541Z,35.50
2018-09-29T13:12:17.937Z,35.50
2018-09-29T13:14:46.404Z,36.05
2018-09-29T13:17:14.778Z,35.98
2018-09-29T13:19:43.379Z,35.64
2018-09-29T13:22:11.975Z,35.62
2018-09-29T13:24:40.388Z,35.67
2018-09-29T13:27:08.851Z,34.70
2018-09-29T13:29:37.159Z,36.65
2018-09-29T13:32:05.344Z,36.28
2018-09-29T13:34:33.765Z,35.83
2018-09-29T13:37:02.225Z,35.01
2018-09-29T13:39:30.685Z,35.34
2018-09-29T13:41:59.200Z,33.98
2018-09-29T13:44:27.673Z,33.95
2018-09-29T13:46:56.046Z,32.75
2018-09-29T13:49:24.557Z,33.92
2018-09-29T13:51:53.065Z,34.35
2018-09-29T13:54:21.325Z,33.50
2018-09-29T13:56:49.676Z,34.08
2018-09-29T13:59:18.966Z,33.55
2018-09-29T14:01:47.432Z,33.56
2018-09-29T14:04:15.856Z,34.44
2018-09-29T14:06:44.474Z,33.97
2018-09-29T14:09:12.806Z,33.83
2018-09-29T14:11:41.525Z,34.17
2018-09-29T14:14:10.202Z,33.82
2018-09-29T14:16:38.634Z,33.94
2018-09-29T14:19:07.157Z,34.09
2018-09-29T14:21:35.602Z,33.87
2018-09-29T14:24:04.076Z,34.52
2018-09-29T14:26:32.456Z,33.24
2018-09-29T14:29:00.890Z,34.16
2018-09-29T14:31:29.447Z,34.73
2018-09-29T14:33:57.837Z,34.27
2018-09-29T14:36:26.195Z,34.64
2018-09-29T14:38:54.897Z,34.44
2018-09-29T14:41:23.194Z,34.69
2018-09-29T14:43:51.590Z,35.01
2018-09-29T14:46:20.225Z,34.77
2018-09-29T14:48:48.527Z,34.54
2018-09-29T14:51:16.969Z,34.68
2018-09-29T14:53:45.510Z,34.72
2018-09-29T14:56:13.936Z,35.50
2018-09-29T14:58:42.559Z,35.18
2018-09-29T15:01:11.701Z,35.12
2018-09-29T15:03:40.149Z,35.55
2018-09-29T15:06:08.400Z,35.20
2018-09-29T15:08:36.907Z,35.12
2018-09-29T15:11:05.315Z,35.09
2018-09-29T15:13:33.587Z,35.73
2018-09-29T15:16:01.985Z,34.99
2018-09-29T15:18:30.416Z,34.84
2018-09-29T15:20:58.829Z,34.54
2018-09-29T15:23:27.210Z,35.05
2018-09-29T15:25:55.694Z,34.15
2018-09-29T15:28:24.159Z,34.58
2018-09-29T15:30:52.725Z,33.41
2018-09-29T15:33:21.155Z,33.52
2018-09-29T15:35:49.549Z,33.69
2018-09-29T15:38:17.956Z,34.17
2018-09-29T15:40:47.221Z,33.87
2018-09-29T15:43:16.566Z,33.74
2018-09-29T15:45:44.959Z,33.91
2018-09-29T15:48:13.928Z,34.00
2018-09-29T15:50:42.546Z,33.78
2018-09-29T15:53:11.065Z,33.81
2018-09-29T15:55:39.638Z,33.77
2018-09-29T15:58:08.061Z,34.13
2018-09-29T16:00:37.010Z,33.93
2018-09-29T16:03:05.811Z,33.86
2018-09-29T16:05:34.823Z,33.48
2018-09-29T16:08:03.434Z,33.35
2018-09-29T16:10:31.909Z,33.14
2018-09-29T16:13:00.331Z,33.44
2018-09-29T16:15:28.835Z,33.74
2018-09-29T16:17:57.234Z,33.30
2018-09-29T16:20:25.736Z,33.66
2018-09-29T16:22:54.359Z,33.66
2018-09-29T16:25:23.641Z,34.19
2018-09-29T16:27:52.121Z,34.04
2018-09-29T16:30:20.710Z,34.41
2018-09-29T16:32:49.185Z,34.81
2018-09-29T16:35:17.607Z,34.71
2018-09-29T16:37:46.345Z,35.54
2018-09-29T16:40:14.893Z,35.68
2018-09-29T16:42:43.440Z,35.22
2018-09-29T16:45:11.961Z,35.64
2018-09-29T16:47:40.358Z,36.01
2018-09-29T16:50:08.764Z,35.99
2018-09-29T16:52:37.146Z,36.56
2018-09-29T16:55:05.680Z,36.47
2018-09-29T16:57:34.122Z,36.70
2018-09-29T17:00:02.554Z,36.83
2018-09-29T17:02:30.969Z,37.24
2018-09-29T17:04:59.417Z,37.13
2018-09-29T17:07:28.350Z,37.39
2018-09-29T17:09:56.653Z,37.38
2018-09-29T17:12:24.952Z,38.29
2018-09-29T17:14:53.339Z,38.33
2018-09-29T17:17:21.652Z,38.68
2018-09-29T17:19:50.093Z,38.77
2018-09-29T17:22:18.482Z,38.79
2018-09-29T17:24:47.007Z,39.29
2018-09-29T17:27:15.793Z,39.76
2018-09-29T17:29:44.060Z,40.79
2018-09-29T17:32:12.709Z,40.65
2018-09-29T17:34:41.025Z,41.42
2018-09-29T17:37:10.054Z,41.77
2018-09-29T17:39:38.473Z,42.44
2018-09-29T17:42:06.801Z,42.30
2018-09-29T17:44:35.234Z,42.22
2018-09-29T17:47:03.598Z,42.30
2018-09-29T17:49:31.833Z,42.88
2018-09-29T17:52:00.349Z,43.22
2018-09-29T17:54:28.580Z,43.67
2018-09-29T17:56:56.869Z,43.85
2018-09-29T17:59:25.100Z,43.77
2018-09-29T18:01:53.334Z,43.92
2018-09-29T18:04:21.603Z,44.34
2018-09-29T18:06:49.811Z,43.90
2018-09-29T18:09:18.250Z,43.57
2018-09-29T18:11:53.221Z,43.55
2018-09-29T18:14:21.529Z,43.39
2018-09-29T18:16:49.800Z,43.69
2018-09-29T18:19:18.207Z,43.41
2018-09-29T18:21:46.722Z,43.41
2018-09-29T18:24:15.084Z,43.87
2018-09-29T18:26:43.705Z,44.21
2018-09-29T18:29:12.308Z,43.48
2018-09-29T18:31:40.851Z,44.11
2018-09-29T18:34:09.625Z,44.23
2018-09-29T18:36:38.110Z,44.39
2018-09-29T18:39:08.455Z,44.96
2018-09-29T18:41:37.067Z,45.25
2018-09-29T18:44:05.628Z,45.54
2018-09-29T18:46:34.062Z,45.48
2018-09-29T18:49:02.515Z,45.58
2018-09-29T18:51:31.022Z,46.26
2018-09-29T18:53:59.437Z,46.27
2018-09-29T18:56:27.997Z,46.25
2018-09-29T18:58:56.378Z,46.51
2018-09-29T19:01:24.861Z,46.96
2018-09-29T19:03:53.292Z,46.86
2018-09-29T19:06:21.656Z,47.13
2018-09-29T19:08:50.071Z,47.63
2018-09-29T19:11:18.490Z,48.12
2018-09-29T19:13:46.781Z,48.28
2018-09-29T19:16:15.151Z,47.75
2018-09-29T19:18:44.130Z,48.43
2018-09-29T19:21:12.627Z,48.73
2018-09-29T19:23:41.354Z,49.02
2018-09-29T19:26:09.841Z,48.45
2018-09-29T19:28:38.292Z,48.46
2018-09-29T19:31:06.828Z,48.39
2018-09-29T19:33:35.234Z,48.79
2018-09-29T19:36:04.573Z,47.92
2018-09-29T19:38:32.893Z,48.04
2018-09-29T19:41:01.221Z,47.78
2018-09-29T19:43:29.709Z,48.48
2018-09-29T19:45:58.175Z,48.64
2018-09-29T19:48:26.567Z,48.88
2018-09-29T19:50:54.887Z,48.28
2018-09-29T19:53:23.190Z,48.63
2018-09-29T19:55:51.604Z,49.92
2018-09-29T19:58:20.045Z,49.13
2018-09-29T20:00:48.647Z,49.71
2018-09-29T20:03:16.866Z,50.00
2018-09-29T20:05:45.257Z,49.75
2018-09-29T20:08:13.848Z,49.35
2018-09-29T20:10:42.429Z,49.49
2018-09-29T20:13:10.963Z,50.90
2018-09-29T20:15:39.468Z,52.83
2018-09-29T20:18:07.926Z,54.14
2018-09-29T20:20:36.384Z,51.73
2018-09-29T20:23:04.634Z,53.65
2018-09-29T20:25:33.168Z,52.37
2018-09-29T20:28:01.652Z,52.71
2018-09-29T20:30:30.182Z,53.70
2018-09-29T20:32:58.505Z,55.23
2018-09-29T20:35:26.918Z,55.69
2018-09-29T20:37:55.236Z,59.06
2018-09-29T20:40:23.596Z,56.73
2018-09-29T20:42:51.991Z,55.08
2018-09-29T20:45:20.418Z,54.78
2018-09-29T20:47:48.870Z,55.48
2018-09-29T20:50:17.240Z,55.72
2018-09-29T20:52:45.644Z,55.53
2018-09-29T20:55:14.089Z,58.44
2018-09-29T20:57:42.501Z,56.97
2018-09-29T21:00:11.054Z,57.30
2018-09-29T21:02:39.833Z,56.78
2018-09-29T21:05:08.375Z,56.26
2018-09-29T21:07:37.190Z,55.93
2018-09-29T21:10:05.817Z,55.33
2018-09-29T21:12:34.294Z,55.48
2018-09-29T21:15:02.693Z,54.46
2018-09-29T21:17:31.062Z,54.48
2018-09-29T21:19:59.405Z,56.36
2018-09-29T21:22:27.773Z,57.48
2018-09-29T21:24:56.171Z,61.04
2018-09-29T21:27:24.623Z,61.51
2018-09-29T21:29:53.001Z,61.12
2018-09-29T21:32:21.450Z,58.20
2018-09-29T21:34:49.787Z,56.34
2018-09-29T21:37:18.308Z,55.41
2018-09-29T21:39:46.711Z,53.94
2018-09-29T21:42:15.075Z,53.65
2018-09-29T21:44:43.552Z,53.90
2018-09-29T21:47:12.179Z,56.98
2018-09-29T21:49:40.620Z,61.26
2018-09-29T21:52:09.073Z,64.79
2018-09-29T21:54:37.541Z,61.43
2018-09-29T21:57:05.896Z,62.81
2018-09-29T22:02:39.571Z,65.59
2018-09-29T22:05:08.025Z,65.47
2018-09-29T22:07:36.289Z,64.31
2018-09-29T22:10:04.574Z,64.64
2018-09-29T22:12:32.873Z,65.27
2018-09-29T22:15:01.103Z,67.62
2018-09-29T22:17:29.523Z,68.26
2018-09-29T22:19:57.923Z,68.58
2018-09-29T22:22:26.075Z,68.60
2018-09-29T22:24:54.561Z,68.28
2018-09-29T22:27:29.596Z,69.37
2018-09-29T22:29:57.745Z,69.47
2018-09-29T22:32:25.927Z,71.34
2018-09-29T22:34:54.334Z,71.43
2018-09-29T22:37:22.795Z,70.97
2018-09-29T22:39:50.974Z,71.71
2018-09-29T22:42:22.183Z,70.88
2018-09-29T22:44:50.593Z,71.20
2018-09-29T22:47:18.985Z,72.76
2018-09-29T22:49:47.253Z,72.87
2018-09-29T22:52:15.696Z,73.48
2018-09-29T22:54:44.158Z,74.23
2018-09-29T22:57:12.665Z,74.83
2018-09-29T22:59:40.959Z,75.82
2018-09-29T23:02:09.706Z,76.72
2018-09-29T23:04:38.125Z,76.35
2018-09-29T23:07:06.580Z,76.03
2018-09-29T23:09:34.974Z,77.50
2018-09-29T23:12:04.254Z,78.26
2018-09-29T23:14:32.528Z,78.29
2018-09-29T23:17:01.044Z,77.51
2018-09-29T23:19:29.688Z,77.08
2018-09-29T23:21:58.195Z,76.78
2018-09-29T23:24:26.597Z,78.13
2018-09-29T23:26:55.084Z,80.33
2018-09-29T23:29:23.600Z,80.36
2018-09-29T23:31:52.049Z,78.97
2018-09-29T23:34:20.219Z,78.75
2018-09-29T23:36:48.552Z,78.70
2018-09-29T23:39:16.996Z,79.40
2018-09-29T23:41:45.489Z,79.18
2018-09-29T23:44:14.001Z,80.15
2018-09-29T23:46:42.490Z,81.08
2018-09-29T23:49:10.976Z,81.08
2018-09-29T23:51:39.473Z,80.70
2018-09-29T23:54:07.810Z,81.21
2018-09-29T23:56:35.991Z,81.92
2018-09-29T23:59:04.285Z,81.81
